sensor_id;sensor_type;location;lat;lon;timestamp;P1;durP1;ratioP1;P2;durP2;ratioP2
50821;SDS011;36794;51.212;6.980;2022-08-19T00:02:23;12.57;;;9.27;;
50821;SDS011;36794;51.212;6.980;2022-08-19T00:04:49;10.13;;;9.10;;
50821;SDS011;36794;51.212;6.980;2022-08-19T00:07:17;12.02;;;9.30;;
50821;SDS011;36794;51.212;6.980;2022-08-19T00:09:43;12.90;;;9.02;;
50821;SDS011;36794;51.212;6.980;2022-08-19T00:12:10;15.07;;;9.82;;
50821;SDS011;36794;51.212;6.980;2022-08-19T00:14:36;10.70;;;9.27;;
50821;SDS011;36794;51.212;6.980;2022-08-19T00:17:03;12.70;;;9.30;;
50821;SDS011;36794;51.212;6.980;2022-08-19T00:19:29;14.93;;;9.98;;
50821;SDS011;36794;51.212;6.980;2022-08-19T00:21:55;12.90;;;9.98;;
50821;SDS011;36794;51.212;6.980;2022-08-19T00:24:21;15.40;;;9.85;;
50821;SDS011;36794;51.212;6.980;2022-08-19T00:26:47;13.05;;;10.00;;
50821;SDS011;36794;51.212;6.980;2022-08-19T00:29:14;12.88;;;10.30;;
50821;SDS011;36794;51.212;6.980;2022-08-19T00:31:41;16.48;;;10.45;;
50821;SDS011;36794;51.212;6.980;2022-08-19T00:34:07;10.90;;;9.65;;
50821;SDS011;36794;51.212;6.980;2022-08-19T00:36:34;13.73;;;10.10;;
50821;SDS011;36794;51.212;6.980;2022-08-19T00:39:00;12.15;;;9.80;;
50821;SDS011;36794;51.212;6.980;2022-08-19T00:41:26;13.23;;;9.77;;
50821;SDS011;36794;51.212;6.980;2022-08-19T00:43:57;12.63;;;10.13;;
50821;SDS011;36794;51.212;6.980;2022-08-19T00:46:23;14.27;;;10.23;;
50821;SDS011;36794;51.212;6.980;2022-08-19T00:48:49;14.20;;;10.48;;
50821;SDS011;36794;51.212;6.980;2022-08-19T00:51:15;12.18;;;10.88;;
50821;SDS011;36794;51.212;6.980;2022-08-19T00:53:41;14.68;;;11.23;;
50821;SDS011;36794;51.212;6.980;2022-08-19T00:56:08;13.85;;;10.82;;
50821;SDS011;36794;51.212;6.980;2022-08-19T00:58:34;12.25;;;10.77;;
50821;SDS011;36794;51.212;6.980;2022-08-19T01:01:01;13.23;;;9.38;;
50821;SDS011;36794;51.212;6.980;2022-08-19T01:03:27;14.50;;;10.05;;
50821;SDS011;36794;51.212;6.980;2022-08-19T01:05:53;12.85;;;10.45;;
50821;SDS011;36794;51.212;6.980;2022-08-19T01:08:20;12.18;;;10.68;;
50821;SDS011;36794;51.212;6.980;2022-08-19T01:10:47;11.43;;;10.23;;
50821;SDS011;36794;51.212;6.980;2022-08-19T01:13:15;14.38;;;10.27;;
50821;SDS011;36794;51.212;6.980;2022-08-19T01:15:42;15.52;;;10.38;;
50821;SDS011;36794;51.212;6.980;2022-08-19T01:18:10;11.50;;;9.75;;
50821;SDS011;36794;51.212;6.980;2022-08-19T01:20:37;14.05;;;10.45;;
50821;SDS011;36794;51.212;6.980;2022-08-19T01:23:04;11.68;;;10.45;;
50821;SDS011;36794;51.212;6.980;2022-08-19T01:25:32;10.95;;;9.85;;
50821;SDS011;36794;51.212;6.980;2022-08-19T01:27:58;13.13;;;10.27;;
50821;SDS011;36794;51.212;6.980;2022-08-19T01:30:26;14.13;;;10.02;;
50821;SDS011;36794;51.212;6.980;2022-08-19T01:32:52;12.05;;;10.43;;
50821;SDS011;36794;51.212;6.980;2022-08-19T01:35:18;14.02;;;10.23;;
50821;SDS011;36794;51.212;6.980;2022-08-19T01:37:49;12.35;;;10.20;;
50821;SDS011;36794;51.212;6.980;2022-08-19T01:40:17;11.10;;;9.80;;
50821;SDS011;36794;51.212;6.980;2022-08-19T01:42:45;11.38;;;9.25;;
50821;SDS011;36794;51.212;6.980;2022-08-19T01:45:11;11.43;;;9.05;;
50821;SDS011;36794;51.212;6.980;2022-08-19T01:47:37;11.25;;;9.23;;
50821;SDS011;36794;51.212;6.980;2022-08-19T01:50:04;13.43;;;10.18;;
50821;SDS011;36794;51.212;6.980;2022-08-19T01:52:30;10.43;;;9.32;;
50821;SDS011;36794;51.212;6.980;2022-08-19T01:54:56;14.13;;;9.25;;
50821;SDS011;36794;51.212;6.980;2022-08-19T01:57:23;13.57;;;9.80;;
50821;SDS011;36794;51.212;6.980;2022-08-19T01:59:49;13.45;;;10.50;;
50821;SDS011;36794;51.212;6.980;2022-08-19T02:02:15;15.18;;;10.25;;
50821;SDS011;36794;51.212;6.980;2022-08-19T02:04:41;11.75;;;10.13;;
50821;SDS011;36794;51.212;6.980;2022-08-19T02:07:07;11.73;;;10.07;;
50821;SDS011;36794;51.212;6.980;2022-08-19T02:09:34;16.13;;;10.45;;
50821;SDS011;36794;51.212;6.980;2022-08-19T02:12:00;11.18;;;9.30;;
50821;SDS011;36794;51.212;6.980;2022-08-19T02:14:26;11.77;;;9.88;;
50821;SDS011;36794;51.212;6.980;2022-08-19T02:16:52;11.00;;;9.90;;
50821;SDS011;36794;51.212;6.980;2022-08-19T02:19:18;14.05;;;10.07;;
50821;SDS011;36794;51.212;6.980;2022-08-19T02:21:44;14.45;;;9.93;;
50821;SDS011;36794;51.212;6.980;2022-08-19T02:24:10;11.68;;;10.27;;
50821;SDS011;36794;51.212;6.980;2022-08-19T02:26:37;12.88;;;10.02;;
50821;SDS011;36794;51.212;6.980;2022-08-19T02:29:03;13.45;;;9.98;;
50821;SDS011;36794;51.212;6.980;2022-08-19T02:31:29;14.00;;;10.10;;
50821;SDS011;36794;51.212;6.980;2022-08-19T02:33:55;11.90;;;10.48;;
50821;SDS011;36794;51.212;6.980;2022-08-19T02:36:22;10.88;;;9.77;;
50821;SDS011;36794;51.212;6.980;2022-08-19T02:38:48;12.18;;;10.20;;
50821;SDS011;36794;51.212;6.980;2022-08-19T02:41:16;11.93;;;10.00;;
50821;SDS011;36794;51.212;6.980;2022-08-19T02:43:42;11.85;;;9.52;;
50821;SDS011;36794;51.212;6.980;2022-08-19T02:46:16;16.08;;;10.18;;
50821;SDS011;36794;51.212;6.980;2022-08-19T02:48:45;15.27;;;10.25;;
50821;SDS011;36794;51.212;6.980;2022-08-19T02:51:15;12.52;;;9.80;;
50821;SDS011;36794;51.212;6.980;2022-08-19T02:53:41;11.15;;;9.95;;
50821;SDS011;36794;51.212;6.980;2022-08-19T02:56:08;11.25;;;9.63;;
50821;SDS011;36794;51.212;6.980;2022-08-19T02:58:34;12.65;;;9.73;;
50821;SDS011;36794;51.212;6.980;2022-08-19T03:01:00;10.20;;;9.02;;
50821;SDS011;36794;51.212;6.980;2022-08-19T03:03:26;16.77;;;8.93;;
50821;SDS011;36794;51.212;6.980;2022-08-19T03:06:01;9.93;;;8.73;;
50821;SDS011;36794;51.212;6.980;2022-08-19T03:08:27;11.43;;;8.65;;
50821;SDS011;36794;51.212;6.980;2022-08-19T03:10:53;12.50;;;10.20;;
50821;SDS011;36794;51.212;6.980;2022-08-19T03:13:19;12.77;;;9.68;;
50821;SDS011;36794;51.212;6.980;2022-08-19T03:15:46;15.27;;;10.10;;
50821;SDS011;36794;51.212;6.980;2022-08-19T03:18:12;12.82;;;9.85;;
50821;SDS011;36794;51.212;6.980;2022-08-19T03:20:43;10.70;;;9.45;;
50821;SDS011;36794;51.212;6.980;2022-08-19T03:23:09;12.10;;;9.35;;
50821;SDS011;36794;51.212;6.980;2022-08-19T03:25:37;11.88;;;10.00;;
50821;SDS011;36794;51.212;6.980;2022-08-19T03:28:03;12.98;;;10.13;;
50821;SDS011;36794;51.212;6.980;2022-08-19T03:30:29;12.57;;;9.98;;
50821;SDS011;36794;51.212;6.980;2022-08-19T03:32:55;12.75;;;10.27;;
50821;SDS011;36794;51.212;6.980;2022-08-19T03:35:22;12.88;;;9.60;;
50821;SDS011;36794;51.212;6.980;2022-08-19T03:37:48;14.77;;;10.18;;
50821;SDS011;36794;51.212;6.980;2022-08-19T03:40:14;13.13;;;9.20;;
50821;SDS011;36794;51.212;6.980;2022-08-19T03:42:40;11.70;;;9.88;;
50821;SDS011;36794;51.212;6.980;2022-08-19T03:45:07;10.52;;;9.27;;
50821;SDS011;36794;51.212;6.980;2022-08-19T03:47:35;11.80;;;9.88;;
50821;SDS011;36794;51.212;6.980;2022-08-19T03:50:02;12.45;;;9.98;;
50821;SDS011;36794;51.212;6.980;2022-08-19T03:52:28;12.70;;;10.75;;
50821;SDS011;36794;51.212;6.980;2022-08-19T03:54:54;13.07;;;11.10;;
50821;SDS011;36794;51.212;6.980;2022-08-19T03:57:20;12.65;;;11.23;;
50821;SDS011;36794;51.212;6.980;2022-08-19T03:59:46;14.50;;;11.38;;
50821;SDS011;36794;51.212;6.980;2022-08-19T04:02:12;12.30;;;10.63;;
50821;SDS011;36794;51.212;6.980;2022-08-19T04:04:40;13.00;;;10.40;;
50821;SDS011;36794;51.212;6.980;2022-08-19T04:07:08;11.82;;;10.20;;
50821;SDS011;36794;51.212;6.980;2022-08-19T04:09:34;12.13;;;10.90;;
50821;SDS011;36794;51.212;6.980;2022-08-19T04:12:01;12.57;;;9.90;;
50821;SDS011;36794;51.212;6.980;2022-08-19T04:14:28;11.50;;;10.30;;
50821;SDS011;36794;51.212;6.980;2022-08-19T04:16:55;10.65;;;9.55;;
50821;SDS011;36794;51.212;6.980;2022-08-19T04:19:21;15.00;;;9.68;;
50821;SDS011;36794;51.212;6.980;2022-08-19T04:21:48;12.85;;;9.23;;
50821;SDS011;36794;51.212;6.980;2022-08-19T04:24:15;10.43;;;8.88;;
50821;SDS011;36794;51.212;6.980;2022-08-19T04:26:41;14.65;;;9.02;;
50821;SDS011;36794;51.212;6.980;2022-08-19T04:29:09;12.88;;;9.70;;
50821;SDS011;36794;51.212;6.980;2022-08-19T04:31:35;12.70;;;9.52;;
50821;SDS011;36794;51.212;6.980;2022-08-19T04:34:02;11.02;;;9.50;;
50821;SDS011;36794;51.212;6.980;2022-08-19T04:36:29;12.10;;;10.63;;
50821;SDS011;36794;51.212;6.980;2022-08-19T04:38:57;14.93;;;12.10;;
50821;SDS011;36794;51.212;6.980;2022-08-19T04:41:23;12.45;;;11.05;;
50821;SDS011;36794;51.212;6.980;2022-08-19T04:44:08;16.38;;;12.38;;
50821;SDS011;36794;51.212;6.980;2022-08-19T04:46:34;16.23;;;12.88;;
50821;SDS011;36794;51.212;6.980;2022-08-19T04:49:02;26.85;;;15.32;;
50821;SDS011;36794;51.212;6.980;2022-08-19T04:51:29;14.68;;;12.60;;
50821;SDS011;36794;51.212;6.980;2022-08-19T04:53:56;13.65;;;11.43;;
50821;SDS011;36794;51.212;6.980;2022-08-19T04:56:22;13.73;;;11.35;;
50821;SDS011;36794;51.212;6.980;2022-08-19T04:58:51;18.52;;;12.18;;
50821;SDS011;36794;51.212;6.980;2022-08-19T05:01:18;14.18;;;11.77;;
50821;SDS011;36794;51.212;6.980;2022-08-19T05:03:45;16.48;;;12.27;;
50821;SDS011;36794;51.212;6.980;2022-08-19T05:06:12;18.20;;;12.20;;
50821;SDS011;36794;51.212;6.980;2022-08-19T05:08:39;18.00;;;13.45;;
50821;SDS011;36794;51.212;6.980;2022-08-19T05:11:19;17.58;;;14.10;;
50821;SDS011;36794;51.212;6.980;2022-08-19T05:13:46;21.38;;;14.77;;
50821;SDS011;36794;51.212;6.980;2022-08-19T05:16:13;16.77;;;11.70;;
50821;SDS011;36794;51.212;6.980;2022-08-19T05:18:39;13.88;;;11.43;;
50821;SDS011;36794;51.212;6.980;2022-08-19T05:21:28;17.85;;;13.43;;
50821;SDS011;36794;51.212;6.980;2022-08-19T05:24:13;16.67;;;12.82;;
50821;SDS011;36794;51.212;6.980;2022-08-19T05:26:41;15.27;;;12.40;;
50821;SDS011;36794;51.212;6.980;2022-08-19T05:29:08;14.43;;;12.32;;
50821;SDS011;36794;51.212;6.980;2022-08-19T05:31:35;13.48;;;12.07;;
50821;SDS011;36794;51.212;6.980;2022-08-19T05:34:01;16.27;;;12.35;;
50821;SDS011;36794;51.212;6.980;2022-08-19T05:36:33;21.02;;;15.45;;
50821;SDS011;36794;51.212;6.980;2022-08-19T05:38:59;22.02;;;17.25;;
50821;SDS011;36794;51.212;6.980;2022-08-19T05:41:25;19.15;;;17.13;;
50821;SDS011;36794;51.212;6.980;2022-08-19T05:44:00;24.77;;;17.60;;
50821;SDS011;36794;51.212;6.980;2022-08-19T05:46:26;22.65;;;18.05;;
50821;SDS011;36794;51.212;6.980;2022-08-19T05:48:52;21.58;;;18.05;;
50821;SDS011;36794;51.212;6.980;2022-08-19T05:51:21;24.98;;;18.75;;
50821;SDS011;36794;51.212;6.980;2022-08-19T05:53:47;24.00;;;18.27;;
50821;SDS011;36794;51.212;6.980;2022-08-19T05:56:14;22.40;;;18.75;;
50821;SDS011;36794;51.212;6.980;2022-08-19T05:58:41;27.77;;;19.42;;
50821;SDS011;36794;51.212;6.980;2022-08-19T06:01:14;26.20;;;19.90;;
50821;SDS011;36794;51.212;6.980;2022-08-19T06:03:41;24.45;;;21.58;;
50821;SDS011;36794;51.212;6.980;2022-08-19T06:06:07;29.92;;;20.98;;
50821;SDS011;36794;51.212;6.980;2022-08-19T06:08:33;29.30;;;23.80;;
50821;SDS011;36794;51.212;6.980;2022-08-19T06:11:14;38.40;;;23.77;;
50821;SDS011;36794;51.212;6.980;2022-08-19T06:13:40;34.08;;;26.10;;
50821;SDS011;36794;51.212;6.980;2022-08-19T06:16:06;34.92;;;25.88;;
50821;SDS011;36794;51.212;6.980;2022-08-19T06:18:32;38.65;;;26.48;;
50821;SDS011;36794;51.212;6.980;2022-08-19T06:20:58;38.30;;;26.33;;
50821;SDS011;36794;51.212;6.980;2022-08-19T06:23:25;35.85;;;27.88;;
50821;SDS011;36794;51.212;6.980;2022-08-19T06:25:51;40.20;;;30.67;;
50821;SDS011;36794;51.212;6.980;2022-08-19T06:28:17;40.20;;;30.85;;
50821;SDS011;36794;51.212;6.980;2022-08-19T06:30:43;38.13;;;30.17;;
50821;SDS011;36794;51.212;6.980;2022-08-19T06:33:09;37.33;;;31.00;;
50821;SDS011;36794;51.212;6.980;2022-08-19T06:35:38;37.42;;;28.58;;
50821;SDS011;36794;51.212;6.980;2022-08-19T06:38:04;43.00;;;30.55;;
50821;SDS011;36794;51.212;6.980;2022-08-19T06:40:30;41.58;;;31.05;;
50821;SDS011;36794;51.212;6.980;2022-08-19T06:42:56;39.10;;;30.17;;
50821;SDS011;36794;51.212;6.980;2022-08-19T06:45:24;40.17;;;32.08;;
50821;SDS011;36794;51.212;6.980;2022-08-19T06:47:51;38.58;;;32.22;;
50821;SDS011;36794;51.212;6.980;2022-08-19T06:50:20;39.15;;;31.33;;
50821;SDS011;36794;51.212;6.980;2022-08-19T06:52:46;40.55;;;31.27;;
50821;SDS011;36794;51.212;6.980;2022-08-19T06:55:12;42.78;;;31.08;;
50821;SDS011;36794;51.212;6.980;2022-08-19T06:57:39;39.20;;;31.00;;
50821;SDS011;36794;51.212;6.980;2022-08-19T07:00:05;42.95;;;30.92;;
50821;SDS011;36794;51.212;6.980;2022-08-19T07:02:34;42.58;;;30.70;;
50821;SDS011;36794;51.212;6.980;2022-08-19T07:05:02;38.78;;;30.90;;
50821;SDS011;36794;51.212;6.980;2022-08-19T07:07:30;42.80;;;31.35;;
50821;SDS011;36794;51.212;6.980;2022-08-19T07:09:56;39.30;;;30.65;;
50821;SDS011;36794;51.212;6.980;2022-08-19T07:12:22;35.20;;;29.23;;
50821;SDS011;36794;51.212;6.980;2022-08-19T07:14:48;37.92;;;30.15;;
50821;SDS011;36794;51.212;6.980;2022-08-19T07:17:14;40.53;;;32.10;;
50821;SDS011;36794;51.212;6.980;2022-08-19T07:19:40;46.83;;;30.42;;
50821;SDS011;36794;51.212;6.980;2022-08-19T07:22:07;44.92;;;30.67;;
50821;SDS011;36794;51.212;6.980;2022-08-19T07:24:34;38.28;;;29.60;;
50821;SDS011;36794;51.212;6.980;2022-08-19T07:27:02;35.72;;;29.30;;
50821;SDS011;36794;51.212;6.980;2022-08-19T07:29:30;40.42;;;30.52;;
50821;SDS011;36794;51.212;6.980;2022-08-19T07:31:57;40.63;;;32.28;;
50821;SDS011;36794;51.212;6.980;2022-08-19T07:34:24;40.78;;;33.72;;
50821;SDS011;36794;51.212;6.980;2022-08-19T07:36:50;46.10;;;35.40;;
50821;SDS011;36794;51.212;6.980;2022-08-19T07:39:18;48.40;;;36.25;;
50821;SDS011;36794;51.212;6.980;2022-08-19T07:41:45;48.80;;;36.15;;
50821;SDS011;36794;51.212;6.980;2022-08-19T07:44:11;48.15;;;36.67;;
50821;SDS011;36794;51.212;6.980;2022-08-19T07:46:39;49.67;;;39.63;;
50821;SDS011;36794;51.212;6.980;2022-08-19T07:49:06;49.03;;;37.88;;
50821;SDS011;36794;51.212;6.980;2022-08-19T07:51:32;46.65;;;36.63;;
50821;SDS011;36794;51.212;6.980;2022-08-19T07:53:58;47.95;;;37.78;;
50821;SDS011;36794;51.212;6.980;2022-08-19T07:56:25;35.72;;;28.77;;
50821;SDS011;36794;51.212;6.980;2022-08-19T07:58:51;47.67;;;38.72;;
50821;SDS011;36794;51.212;6.980;2022-08-19T08:01:19;50.22;;;41.35;;
50821;SDS011;36794;51.212;6.980;2022-08-19T08:03:45;57.78;;;41.22;;
50821;SDS011;36794;51.212;6.980;2022-08-19T08:06:30;59.13;;;39.78;;
50821;SDS011;36794;51.212;6.980;2022-08-19T08:09:15;52.78;;;38.90;;
50821;SDS011;36794;51.212;6.980;2022-08-19T08:11:53;52.20;;;38.60;;
50821;SDS011;36794;51.212;6.980;2022-08-19T08:14:28;48.20;;;38.33;;
50821;SDS011;36794;51.212;6.980;2022-08-19T08:16:56;52.97;;;38.92;;
50821;SDS011;36794;51.212;6.980;2022-08-19T08:19:22;50.00;;;38.53;;
50821;SDS011;36794;51.212;6.980;2022-08-19T08:21:49;49.78;;;39.03;;
50821;SDS011;36794;51.212;6.980;2022-08-19T08:24:16;49.83;;;37.20;;
50821;SDS011;36794;51.212;6.980;2022-08-19T08:26:42;47.35;;;35.05;;
50821;SDS011;36794;51.212;6.980;2022-08-19T08:29:09;51.88;;;35.50;;
50821;SDS011;36794;51.212;6.980;2022-08-19T08:31:37;47.63;;;35.42;;
50821;SDS011;36794;51.212;6.980;2022-08-19T08:34:03;46.00;;;31.98;;
50821;SDS011;36794;51.212;6.980;2022-08-19T08:36:29;41.25;;;32.67;;
50821;SDS011;36794;51.212;6.980;2022-08-19T08:38:58;41.97;;;31.00;;
50821;SDS011;36794;51.212;6.980;2022-08-19T08:41:38;40.33;;;30.05;;
50821;SDS011;36794;51.212;6.980;2022-08-19T08:44:06;42.08;;;29.50;;
50821;SDS011;36794;51.212;6.980;2022-08-19T08:46:37;38.28;;;27.70;;
50821;SDS011;36794;51.212;6.980;2022-08-19T08:51:44;37.13;;;26.67;;
50821;SDS011;36794;51.212;6.980;2022-08-19T08:54:14;37.20;;;27.38;;
50821;SDS011;36794;51.212;6.980;2022-08-19T08:56:41;38.17;;;26.58;;
50821;SDS011;36794;51.212;6.980;2022-08-19T08:59:26;35.97;;;24.83;;
50821;SDS011;36794;51.212;6.980;2022-08-19T09:01:57;33.55;;;24.83;;
50821;SDS011;36794;51.212;6.980;2022-08-19T09:04:23;34.35;;;24.17;;
50821;SDS011;36794;51.212;6.980;2022-08-19T09:07:01;31.38;;;24.40;;
50821;SDS011;36794;51.212;6.980;2022-08-19T09:09:32;31.52;;;24.33;;
50821;SDS011;36794;51.212;6.980;2022-08-19T09:17:08;31.23;;;20.77;;
50821;SDS011;36794;51.212;6.980;2022-08-19T09:19:35;28.55;;;21.77;;
50821;SDS011;36794;51.212;6.980;2022-08-19T09:22:01;27.65;;;19.95;;
50821;SDS011;36794;51.212;6.980;2022-08-19T09:24:27;29.63;;;18.63;;
50821;SDS011;36794;51.212;6.980;2022-08-19T09:26:53;26.33;;;18.55;;
50821;SDS011;36794;51.212;6.980;2022-08-19T09:29:20;26.25;;;19.48;;
50821;SDS011;36794;51.212;6.980;2022-08-19T09:31:46;29.00;;;19.77;;
50821;SDS011;36794;51.212;6.980;2022-08-19T09:34:11;31.13;;;23.08;;
50821;SDS011;36794;51.212;6.980;2022-08-19T09:36:37;30.73;;;22.65;;
50821;SDS011;36794;51.212;6.980;2022-08-19T09:39:04;31.63;;;23.58;;
50821;SDS011;36794;51.212;6.980;2022-08-19T09:41:30;36.80;;;25.30;;
50821;SDS011;36794;51.212;6.980;2022-08-19T09:43:57;36.90;;;24.30;;
50821;SDS011;36794;51.212;6.980;2022-08-19T09:46:24;32.25;;;22.67;;
50821;SDS011;36794;51.212;6.980;2022-08-19T09:48:51;29.50;;;22.90;;
50821;SDS011;36794;51.212;6.980;2022-08-19T09:51:24;30.40;;;21.08;;
50821;SDS011;36794;51.212;6.980;2022-08-19T09:53:52;27.50;;;18.80;;
50821;SDS011;36794;51.212;6.980;2022-08-19T09:56:21;29.98;;;20.95;;
50821;SDS011;36794;51.212;6.980;2022-08-19T09:58:48;26.88;;;20.02;;
50821;SDS011;36794;51.212;6.980;2022-08-19T10:01:18;30.27;;;21.42;;
50821;SDS011;36794;51.212;6.980;2022-08-19T10:03:46;27.75;;;19.30;;
50821;SDS011;36794;51.212;6.980;2022-08-19T10:06:13;27.42;;;19.08;;
50821;SDS011;36794;51.212;6.980;2022-08-19T10:08:39;28.42;;;18.58;;
50821;SDS011;36794;51.212;6.980;2022-08-19T10:11:05;28.92;;;20.35;;
50821;SDS011;36794;51.212;6.980;2022-08-19T10:13:31;30.70;;;21.15;;
50821;SDS011;36794;51.212;6.980;2022-08-19T10:16:07;32.13;;;22.58;;
50821;SDS011;36794;51.212;6.980;2022-08-19T10:18:33;31.20;;;20.38;;
50821;SDS011;36794;51.212;6.980;2022-08-19T10:21:04;21.70;;;16.70;;
50821;SDS011;36794;51.212;6.980;2022-08-19T10:23:33;21.02;;;16.25;;
50821;SDS011;36794;51.212;6.980;2022-08-19T10:25:59;22.63;;;14.57;;
50821;SDS011;36794;51.212;6.980;2022-08-19T10:28:25;19.42;;;14.30;;
50821;SDS011;36794;51.212;6.980;2022-08-19T10:30:51;18.60;;;13.88;;
50821;SDS011;36794;51.212;6.980;2022-08-19T10:33:18;22.55;;;13.88;;
50821;SDS011;36794;51.212;6.980;2022-08-19T10:35:44;16.73;;;12.77;;
50821;SDS011;36794;51.212;6.980;2022-08-19T10:38:11;19.00;;;13.77;;
50821;SDS011;36794;51.212;6.980;2022-08-19T10:40:37;16.08;;;11.38;;
50821;SDS011;36794;51.212;6.980;2022-08-19T10:43:04;16.48;;;11.13;;
50821;SDS011;36794;51.212;6.980;2022-08-19T10:45:30;18.65;;;13.68;;
50821;SDS011;36794;51.212;6.980;2022-08-19T10:47:56;18.08;;;14.65;;
50821;SDS011;36794;51.212;6.980;2022-08-19T10:50:22;21.17;;;17.30;;
50821;SDS011;36794;51.212;6.980;2022-08-19T10:55:35;23.95;;;14.15;;
50821;SDS011;36794;51.212;6.980;2022-08-19T10:58:20;25.65;;;16.65;;
50821;SDS011;36794;51.212;6.980;2022-08-19T11:00:54;22.65;;;15.35;;
50821;SDS011;36794;51.212;6.980;2022-08-19T11:03:20;15.15;;;10.43;;
50821;SDS011;36794;51.212;6.980;2022-08-19T11:05:51;16.02;;;13.73;;
50821;SDS011;36794;51.212;6.980;2022-08-19T11:08:22;17.83;;;12.52;;
50821;SDS011;36794;51.212;6.980;2022-08-19T11:10:50;18.48;;;12.20;;
50821;SDS011;36794;51.212;6.980;2022-08-19T11:13:16;19.63;;;13.60;;
50821;SDS011;36794;51.212;6.980;2022-08-19T11:15:41;21.55;;;14.35;;
50821;SDS011;36794;51.212;6.980;2022-08-19T11:18:08;20.25;;;14.05;;
50821;SDS011;36794;51.212;6.980;2022-08-19T11:20:33;17.25;;;12.55;;
50821;SDS011;36794;51.212;6.980;2022-08-19T11:22:59;19.02;;;12.73;;
50821;SDS011;36794;51.212;6.980;2022-08-19T11:25:25;16.77;;;11.32;;
50821;SDS011;36794;51.212;6.980;2022-08-19T11:27:51;18.33;;;14.70;;
50821;SDS011;36794;51.212;6.980;2022-08-19T11:30:17;13.57;;;10.48;;
50821;SDS011;36794;51.212;6.980;2022-08-19T11:32:43;13.93;;;10.40;;
50821;SDS011;36794;51.212;6.980;2022-08-19T11:35:09;14.23;;;9.45;;
50821;SDS011;36794;51.212;6.980;2022-08-19T11:37:36;15.85;;;9.68;;
50821;SDS011;36794;51.212;6.980;2022-08-19T11:40:03;14.38;;;9.93;;
50821;SDS011;36794;51.212;6.980;2022-08-19T11:42:29;11.00;;;7.70;;
50821;SDS011;36794;51.212;6.980;2022-08-19T11:45:14;13.38;;;7.35;;
50821;SDS011;36794;51.212;6.980;2022-08-19T11:47:42;10.35;;;7.20;;
50821;SDS011;36794;51.212;6.980;2022-08-19T11:50:09;13.48;;;7.82;;
50821;SDS011;36794;51.212;6.980;2022-08-19T11:52:34;8.27;;;6.88;;
50821;SDS011;36794;51.212;6.980;2022-08-19T11:55:01;9.00;;;7.00;;
50821;SDS011;36794;51.212;6.980;2022-08-19T11:57:27;8.52;;;6.93;;
50821;SDS011;36794;51.212;6.980;2022-08-19T11:59:54;10.65;;;7.57;;
50821;SDS011;36794;51.212;6.980;2022-08-19T12:02:20;11.23;;;6.80;;
50821;SDS011;36794;51.212;6.980;2022-08-19T12:04:46;11.23;;;6.93;;
50821;SDS011;36794;51.212;6.980;2022-08-19T12:07:12;9.13;;;7.13;;
50821;SDS011;36794;51.212;6.980;2022-08-19T12:09:38;8.80;;;6.13;;
50821;SDS011;36794;51.212;6.980;2022-08-19T12:12:04;8.52;;;5.43;;
50821;SDS011;36794;51.212;6.980;2022-08-19T12:14:30;7.85;;;5.70;;
50821;SDS011;36794;51.212;6.980;2022-08-19T12:16:57;9.93;;;5.38;;
50821;SDS011;36794;51.212;6.980;2022-08-19T12:19:23;10.93;;;5.88;;
50821;SDS011;36794;51.212;6.980;2022-08-19T12:21:50;9.75;;;5.88;;
50821;SDS011;36794;51.212;6.980;2022-08-19T12:24:18;12.57;;;7.07;;
50821;SDS011;36794;51.212;6.980;2022-08-19T12:26:49;8.35;;;5.93;;
50821;SDS011;36794;51.212;6.980;2022-08-19T12:29:15;9.00;;;6.80;;
50821;SDS011;36794;51.212;6.980;2022-08-19T12:31:41;11.60;;;7.00;;
50821;SDS011;36794;51.212;6.980;2022-08-19T12:34:07;10.60;;;7.95;;
50821;SDS011;36794;51.212;6.980;2022-08-19T12:36:33;10.48;;;6.82;;
50821;SDS011;36794;51.212;6.980;2022-08-19T12:38:59;12.10;;;7.40;;
50821;SDS011;36794;51.212;6.980;2022-08-19T12:41:25;8.27;;;6.65;;
50821;SDS011;36794;51.212;6.980;2022-08-19T12:43:52;9.27;;;6.18;;
50821;SDS011;36794;51.212;6.980;2022-08-19T12:46:18;8.57;;;6.60;;
50821;SDS011;36794;51.212;6.980;2022-08-19T12:48:44;9.40;;;6.30;;
50821;SDS011;36794;51.212;6.980;2022-08-19T12:51:14;10.05;;;6.10;;
50821;SDS011;36794;51.212;6.980;2022-08-19T12:53:41;7.90;;;5.70;;
50821;SDS011;36794;51.212;6.980;2022-08-19T12:56:08;12.05;;;7.82;;
50821;SDS011;36794;51.212;6.980;2022-08-19T12:58:35;9.25;;;6.43;;
50821;SDS011;36794;51.212;6.980;2022-08-19T13:01:09;10.05;;;5.78;;
50821;SDS011;36794;51.212;6.980;2022-08-19T13:03:37;9.65;;;6.65;;
50821;SDS011;36794;51.212;6.980;2022-08-19T13:18:45;8.77;;;5.78;;
50821;SDS011;36794;51.212;6.980;2022-08-19T13:21:16;10.60;;;6.10;;
50821;SDS011;36794;51.212;6.980;2022-08-19T13:23:44;8.02;;;5.53;;
50821;SDS011;36794;51.212;6.980;2022-08-19T13:26:11;9.00;;;5.30;;
50821;SDS011;36794;51.212;6.980;2022-08-19T13:28:37;8.68;;;5.90;;
50821;SDS011;36794;51.212;6.980;2022-08-19T13:31:23;13.82;;;6.00;;
50821;SDS011;36794;51.212;6.980;2022-08-19T13:34:08;9.15;;;5.70;;
50821;SDS011;36794;51.212;6.980;2022-08-19T13:36:34;8.32;;;6.10;;
50821;SDS011;36794;51.212;6.980;2022-08-19T13:39:01;8.18;;;5.80;;
50821;SDS011;36794;51.212;6.980;2022-08-19T13:41:27;7.63;;;5.05;;
50821;SDS011;36794;51.212;6.980;2022-08-19T13:43:53;6.82;;;4.90;;
50821;SDS011;36794;51.212;6.980;2022-08-19T13:46:20;7.68;;;5.10;;
50821;SDS011;36794;51.212;6.980;2022-08-19T13:48:46;7.88;;;5.00;;
50821;SDS011;36794;51.212;6.980;2022-08-19T13:51:16;8.45;;;4.88;;
50821;SDS011;36794;51.212;6.980;2022-08-19T13:53:43;6.03;;;4.78;;
50821;SDS011;36794;51.212;6.980;2022-08-19T13:56:10;13.70;;;5.20;;
50821;SDS011;36794;51.212;6.980;2022-08-19T13:58:36;6.70;;;4.63;;
50821;SDS011;36794;51.212;6.980;2022-08-19T14:01:02;6.65;;;4.03;;
50821;SDS011;36794;51.212;6.980;2022-08-19T14:03:28;7.00;;;4.43;;
50821;SDS011;36794;51.212;6.980;2022-08-19T14:05:54;6.80;;;4.35;;
50821;SDS011;36794;51.212;6.980;2022-08-19T14:08:20;6.00;;;4.38;;
50821;SDS011;36794;51.212;6.980;2022-08-19T14:10:46;7.60;;;4.65;;
50821;SDS011;36794;51.212;6.980;2022-08-19T14:13:14;8.02;;;4.40;;
50821;SDS011;36794;51.212;6.980;2022-08-19T14:15:41;10.82;;;4.57;;
50821;SDS011;36794;51.212;6.980;2022-08-19T14:18:07;7.40;;;3.38;;
50821;SDS011;36794;51.212;6.980;2022-08-19T14:20:34;9.88;;;3.90;;
50821;SDS011;36794;51.212;6.980;2022-08-19T14:23:00;5.38;;;4.00;;
50821;SDS011;36794;51.212;6.980;2022-08-19T14:25:27;4.65;;;3.28;;
50821;SDS011;36794;51.212;6.980;2022-08-19T14:27:53;6.05;;;3.58;;
50821;SDS011;36794;51.212;6.980;2022-08-19T14:30:21;7.57;;;3.80;;
50821;SDS011;36794;51.212;6.980;2022-08-19T14:32:47;3.58;;;3.15;;
50821;SDS011;36794;51.212;6.980;2022-08-19T14:35:13;9.70;;;3.42;;
50821;SDS011;36794;51.212;6.980;2022-08-19T14:37:41;5.70;;;3.15;;
50821;SDS011;36794;51.212;6.980;2022-08-19T14:40:07;6.15;;;3.17;;
50821;SDS011;36794;51.212;6.980;2022-08-19T14:42:33;9.48;;;3.50;;
50821;SDS011;36794;51.212;6.980;2022-08-19T14:45:00;6.95;;;3.58;;
50821;SDS011;36794;51.212;6.980;2022-08-19T14:47:26;6.03;;;3.40;;
50821;SDS011;36794;51.212;6.980;2022-08-19T14:49:52;6.80;;;3.30;;
50821;SDS011;36794;51.212;6.980;2022-08-19T14:52:18;8.32;;;2.92;;
50821;SDS011;36794;51.212;6.980;2022-08-19T14:54:44;4.93;;;3.28;;